Richfield Heights, Ohio
Current Conditions -  °F | °C
As of 8:51 PM on Thursday 20 Nov 2014 (Local Time) from KCLE Reporting Station
Light Snow Light Snow  
Wind Chill: 10°   Ceiling: 4500
Heat Index: 23°   Visibility: 9mi
Dew Point: 17°   Wind: 15mph
Humidity: 78%   Direction: 220°SW
Pressure: 30.12"   Gusts: NA
Location:  41.2393°N, 81.6428°W
Report Text: KCLE 210151Z 22013KT 9SM -SN OVC045 M05/M08 A3012 RMK AO2 SLP210 P0000 T10501083 $
Loading
Personal Weather Stations






























Interactive Weather Map New forecast layout! Learn more

10-Day Weather Forecast

Advertisements
Track Severe Weather on mobile